sensor_id;sensor_type;location;lat;lon;timestamp;pressure;altitude;pressure_sealevel;temperature;humidity
39223;BME280;24936;46.328;11.026;2023-04-28T00:01:22;94599.97;;;6.06;81.44
39223;BME280;24936;46.328;11.026;2023-04-28T00:03:47;94600.66;;;5.84;82.46
39223;BME280;24936;46.328;11.026;2023-04-28T00:06:13;94603.34;;;5.82;82.70
39223;BME280;24936;46.328;11.026;2023-04-28T00:08:39;94593.09;;;5.92;82.38
39223;BME280;24936;46.328;11.026;2023-04-28T00:11:11;94592.25;;;6.05;81.09
39223;BME280;24936;46.328;11.026;2023-04-28T00:13:37;94596.09;;;5.99;81.08
39223;BME280;24936;46.328;11.026;2023-04-28T00:16:02;94592.63;;;5.74;82.28
39223;BME280;24936;46.328;11.026;2023-04-28T00:18:28;94588.25;;;5.62;84.00
39223;BME280;24936;46.328;11.026;2023-04-28T00:20:54;94590.13;;;5.47;83.89
39223;BME280;24936;46.328;11.026;2023-04-28T00:23:20;94593.66;;;5.72;82.50
39223;BME280;24936;46.328;11.026;2023-04-28T00:25:53;94600.22;;;6.03;80.47
39223;BME280;24936;46.328;11.026;2023-04-28T00:28:19;94590.66;;;6.15;79.44
39223;BME280;24936;46.328;11.026;2023-04-28T00:30:45;94595.25;;;6.11;79.38
39223;BME280;24936;46.328;11.026;2023-04-28T00:33:11;94592.78;;;6.10;79.86
39223;BME280;24936;46.328;11.026;2023-04-28T00:35:38;94602.28;;;5.85;81.74
39223;BME280;24936;46.328;11.026;2023-04-28T00:38:03;94601.94;;;5.65;83.12
39223;BME280;24936;46.328;11.026;2023-04-28T00:40:33;94597.56;;;5.40;84.90
39223;BME280;24936;46.328;11.026;2023-04-28T00:42:58;94610.72;;;5.13;85.30
39223;BME280;24936;46.328;11.026;2023-04-28T00:45:24;94607.69;;;5.06;85.52
39223;BME280;24936;46.328;11.026;2023-04-28T00:47:50;94609.94;;;4.98;85.58
39223;BME280;24936;46.328;11.026;2023-04-28T00:50:15;94608.41;;;5.08;86.24
39223;BME280;24936;46.328;11.026;2023-04-28T00:52:42;94602.31;;;4.95;86.23
39223;BME280;24936;46.328;11.026;2023-04-28T00:55:08;94598.28;;;5.55;83.24
39223;BME280;24936;46.328;11.026;2023-04-28T00:57:34;94602.13;;;5.62;82.24
39223;BME280;24936;46.328;11.026;2023-04-28T01:00:00;94593.16;;;5.66;82.08
39223;BME280;24936;46.328;11.026;2023-04-28T01:02:26;94602.66;;;5.55;82.21
39223;BME280;24936;46.328;11.026;2023-04-28T01:04:57;94603.91;;;5.49;82.79
39223;BME280;24936;46.328;11.026;2023-04-28T01:07:23;94599.00;;;5.31;83.56
39223;BME280;24936;46.328;11.026;2023-04-28T01:09:48;94596.72;;;5.27;84.81
39223;BME280;24936;46.328;11.026;2023-04-28T01:12:14;94596.72;;;5.27;84.32
39223;BME280;24936;46.328;11.026;2023-04-28T01:14:40;94596.31;;;5.07;85.76
39223;BME280;24936;46.328;11.026;2023-04-28T01:17:06;94597.09;;;4.95;86.15
39223;BME280;24936;46.328;11.026;2023-04-28T01:19:32;94604.06;;;4.81;87.12
39223;BME280;24936;46.328;11.026;2023-04-28T01:21:58;94600.66;;;4.81;87.16
39223;BME280;24936;46.328;11.026;2023-04-28T01:24:23;94600.88;;;4.90;86.71
39223;BME280;24936;46.328;11.026;2023-04-28T01:26:49;94604.63;;;4.86;86.81
39223;BME280;24936;46.328;11.026;2023-04-28T01:29:14;94611.13;;;4.94;86.87
39223;BME280;24936;46.328;11.026;2023-04-28T01:31:40;94601.53;;;5.07;86.07
39223;BME280;24936;46.328;11.026;2023-04-28T01:34:05;94601.09;;;5.39;83.68
39223;BME280;24936;46.328;11.026;2023-04-28T01:36:31;94606.53;;;5.23;83.94
39223;BME280;24936;46.328;11.026;2023-04-28T01:38:57;94608.94;;;5.13;85.11
39223;BME280;24936;46.328;11.026;2023-04-28T01:41:22;94614.47;;;5.22;83.83
39223;BME280;24936;46.328;11.026;2023-04-28T01:43:48;94609.25;;;5.09;85.02
39223;BME280;24936;46.328;11.026;2023-04-28T01:46:13;94621.81;;;4.89;85.84
39223;BME280;24936;46.328;11.026;2023-04-28T01:48:39;94626.34;;;5.00;85.55
39223;BME280;24936;46.328;11.026;2023-04-28T01:51:04;94628.75;;;5.16;84.99
39223;BME280;24936;46.328;11.026;2023-04-28T01:53:30;94625.84;;;5.20;84.27
39223;BME280;24936;46.328;11.026;2023-04-28T01:55:55;94632.59;;;4.97;85.32
39223;BME280;24936;46.328;11.026;2023-04-28T01:58:23;94634.75;;;4.78;86.45
39223;BME280;24936;46.328;11.026;2023-04-28T02:00:48;94633.06;;;4.64;86.77
39223;BME280;24936;46.328;11.026;2023-04-28T02:03:14;94624.66;;;4.99;85.25
39223;BME280;24936;46.328;11.026;2023-04-28T02:05:39;94628.53;;;4.93;84.40
39223;BME280;24936;46.328;11.026;2023-04-28T02:08:05;94638.31;;;4.89;84.79
39223;BME280;24936;46.328;11.026;2023-04-28T02:10:30;94631.75;;;4.56;86.68
39223;BME280;24936;46.328;11.026;2023-04-28T02:12:56;94640.00;;;4.50;87.13
39223;BME280;24936;46.328;11.026;2023-04-28T02:15:22;94628.97;;;4.59;87.13
39223;BME280;24936;46.328;11.026;2023-04-28T02:17:47;94630.44;;;4.64;86.89
39223;BME280;24936;46.328;11.026;2023-04-28T02:20:13;94625.81;;;4.54;87.29
39223;BME280;24936;46.328;11.026;2023-04-28T02:22:39;94624.06;;;4.55;87.76
39223;BME280;24936;46.328;11.026;2023-04-28T02:25:05;94617.56;;;5.01;85.19
39223;BME280;24936;46.328;11.026;2023-04-28T02:27:31;94616.53;;;5.03;84.56
39223;BME280;24936;46.328;11.026;2023-04-28T02:29:57;94606.19;;;4.89;84.91
39223;BME280;24936;46.328;11.026;2023-04-28T02:32:22;94617.47;;;4.49;87.06
39223;BME280;24936;46.328;11.026;2023-04-28T02:34:52;94618.78;;;4.42;87.90
39223;BME280;24936;46.328;11.026;2023-04-28T02:37:18;94614.50;;;4.41;88.05
39223;BME280;24936;46.328;11.026;2023-04-28T02:39:44;94608.09;;;4.59;87.12
39223;BME280;24936;46.328;11.026;2023-04-28T02:42:09;94618.28;;;4.50;87.92
39223;BME280;24936;46.328;11.026;2023-04-28T02:44:35;94612.75;;;4.41;88.32
39223;BME280;24936;46.328;11.026;2023-04-28T02:47:00;94614.50;;;4.41;89.24
39223;BME280;24936;46.328;11.026;2023-04-28T02:49:27;94615.03;;;4.46;89.52
39223;BME280;24936;46.328;11.026;2023-04-28T02:51:52;94611.25;;;4.65;88.14
39223;BME280;24936;46.328;11.026;2023-04-28T02:54:18;94616.69;;;4.74;87.34
39223;BME280;24936;46.328;11.026;2023-04-28T02:56:54;94618.78;;;4.82;87.38
39223;BME280;24936;46.328;11.026;2023-04-28T02:59:21;94628.81;;;4.88;87.68
39223;BME280;24936;46.328;11.026;2023-04-28T03:01:47;94630.72;;;4.99;87.42
39223;BME280;24936;46.328;11.026;2023-04-28T03:04:13;94620.00;;;5.04;86.73
39223;BME280;24936;46.328;11.026;2023-04-28T03:06:39;94618.63;;;5.11;87.02
39223;BME280;24936;46.328;11.026;2023-04-28T03:09:05;94623.88;;;5.24;86.47
39223;BME280;24936;46.328;11.026;2023-04-28T03:11:31;94606.53;;;5.23;85.50
39223;BME280;24936;46.328;11.026;2023-04-28T03:13:56;94604.75;;;5.11;85.96
39223;BME280;24936;46.328;11.026;2023-04-28T03:16:22;94606.63;;;5.09;85.41
39223;BME280;24936;46.328;11.026;2023-04-28T03:18:47;94594.84;;;5.03;84.98
39223;BME280;24936;46.328;11.026;2023-04-28T03:21:13;94596.03;;;4.71;86.02
39223;BME280;24936;46.328;11.026;2023-04-28T03:23:38;94601.47;;;4.41;87.34
39223;BME280;24936;46.328;11.026;2023-04-28T03:26:04;94608.22;;;4.31;88.19
39223;BME280;24936;46.328;11.026;2023-04-28T03:28:30;94603.41;;;4.24;88.49
39223;BME280;24936;46.328;11.026;2023-04-28T03:30:55;94605.72;;;4.29;88.51
39223;BME280;24936;46.328;11.026;2023-04-28T03:33:20;94605.41;;;4.34;88.37
39223;BME280;24936;46.328;11.026;2023-04-28T03:35:46;94607.63;;;4.12;89.11
39223;BME280;24936;46.328;11.026;2023-04-28T03:38:12;94601.56;;;4.12;89.40
39223;BME280;24936;46.328;11.026;2023-04-28T03:40:37;94605.59;;;4.03;89.94
39223;BME280;24936;46.328;11.026;2023-04-28T03:43:02;94612.38;;;4.06;90.36
39223;BME280;24936;46.328;11.026;2023-04-28T03:45:28;94618.19;;;4.24;89.93
39223;BME280;24936;46.328;11.026;2023-04-28T03:47:53;94621.69;;;4.37;89.70
39223;BME280;24936;46.328;11.026;2023-04-28T03:50:19;94613.47;;;4.43;89.63
39223;BME280;24936;46.328;11.026;2023-04-28T03:52:44;94618.53;;;4.59;89.42
39223;BME280;24936;46.328;11.026;2023-04-28T03:55:10;94615.47;;;4.80;88.83
39223;BME280;24936;46.328;11.026;2023-04-28T03:57:36;94604.22;;;4.93;88.01
39223;BME280;24936;46.328;11.026;2023-04-28T04:00:01;94601.94;;;5.14;86.93
39223;BME280;24936;46.328;11.026;2023-04-28T04:02:27;94604.97;;;5.20;86.90
39223;BME280;24936;46.328;11.026;2023-04-28T04:04:52;94603.59;;;5.28;87.29
39223;BME280;24936;46.328;11.026;2023-04-28T04:07:18;94602.97;;;5.37;86.77
39223;BME280;24936;46.328;11.026;2023-04-28T04:09:43;94610.09;;;5.35;87.27
39223;BME280;24936;46.328;11.026;2023-04-28T04:12:09;94600.50;;;5.48;87.12
39223;BME280;24936;46.328;11.026;2023-04-28T04:14:34;94610.28;;;5.45;86.47
39223;BME280;24936;46.328;11.026;2023-04-28T04:17:00;94609.88;;;5.51;85.25
39223;BME280;24936;46.328;11.026;2023-04-28T04:19:26;94607.16;;;5.53;86.75
39223;BME280;24936;46.328;11.026;2023-04-28T04:21:52;94605.16;;;5.69;86.33
39223;BME280;24936;46.328;11.026;2023-04-28T04:24:17;94601.53;;;5.59;86.34
39223;BME280;24936;46.328;11.026;2023-04-28T04:26:43;94607.97;;;5.66;86.11
39223;BME280;24936;46.328;11.026;2023-04-28T04:29:08;94620.09;;;5.67;86.18
39223;BME280;24936;46.328;11.026;2023-04-28T04:31:34;94611.84;;;5.60;86.02
39223;BME280;24936;46.328;11.026;2023-04-28T04:33:59;94616.28;;;5.97;86.64
39223;BME280;24936;46.328;11.026;2023-04-28T04:36:25;94617.34;;;5.81;85.08
39223;BME280;24936;46.328;11.026;2023-04-28T04:38:51;94610.56;;;5.92;85.66
39223;BME280;24936;46.328;11.026;2023-04-28T04:41:17;94610.88;;;6.00;85.17
39223;BME280;24936;46.328;11.026;2023-04-28T04:43:44;94616.72;;;6.04;84.22
39223;BME280;24936;46.328;11.026;2023-04-28T04:46:10;94622.13;;;6.14;82.76
39223;BME280;24936;46.328;11.026;2023-04-28T04:48:36;94625.81;;;6.35;81.94
39223;BME280;24936;46.328;11.026;2023-04-28T04:51:01;94624.38;;;6.31;82.50
39223;BME280;24936;46.328;11.026;2023-04-28T04:53:27;94626.28;;;6.16;83.10
39223;BME280;24936;46.328;11.026;2023-04-28T04:55:52;94628.63;;;6.08;83.42
39223;BME280;24936;46.328;11.026;2023-04-28T04:58:18;94631.56;;;6.03;83.78
39223;BME280;24936;46.328;11.026;2023-04-28T05:00:43;94636.81;;;6.03;84.38
39223;BME280;24936;46.328;11.026;2023-04-28T05:03:09;94630.72;;;6.03;85.15
39223;BME280;24936;46.328;11.026;2023-04-28T05:05:34;94625.56;;;6.14;82.90
39223;BME280;24936;46.328;11.026;2023-04-28T05:08:00;94629.09;;;6.26;82.68
39223;BME280;24936;46.328;11.026;2023-04-28T05:10:26;94633.78;;;6.34;82.42
39223;BME280;24936;46.328;11.026;2023-04-28T05:12:52;94630.41;;;6.45;83.12
39223;BME280;24936;46.328;11.026;2023-04-28T05:15:17;94625.03;;;6.46;83.93
39223;BME280;24936;46.328;11.026;2023-04-28T05:17:43;94626.59;;;6.49;84.16
39223;BME280;24936;46.328;11.026;2023-04-28T05:20:09;94614.03;;;6.54;82.60
39223;BME280;24936;46.328;11.026;2023-04-28T05:22:34;94616.81;;;6.64;82.02
39223;BME280;24936;46.328;11.026;2023-04-28T05:25:00;94624.09;;;6.71;80.72
39223;BME280;24936;46.328;11.026;2023-04-28T05:27:25;94620.59;;;6.84;80.48
39223;BME280;24936;46.328;11.026;2023-04-28T05:29:51;94618.22;;;6.92;81.44
39223;BME280;24936;46.328;11.026;2023-04-28T05:32:16;94608.28;;;7.09;81.99
39223;BME280;24936;46.328;11.026;2023-04-28T05:34:42;94616.03;;;7.10;80.60
39223;BME280;24936;46.328;11.026;2023-04-28T05:37:07;94602.97;;;7.22;79.69
39223;BME280;24936;46.328;11.026;2023-04-28T05:39:33;94598.63;;;7.45;79.60
39223;BME280;24936;46.328;11.026;2023-04-28T05:41:58;94602.66;;;7.60;78.00
39223;BME280;24936;46.328;11.026;2023-04-28T05:44:24;94592.78;;;7.64;76.61
39223;BME280;24936;46.328;11.026;2023-04-28T05:46:49;94592.28;;;7.81;77.90
39223;BME280;24936;46.328;11.026;2023-04-28T05:49:15;94600.63;;;7.98;76.90
39223;BME280;24936;46.328;11.026;2023-04-28T05:51:41;94610.75;;;8.03;76.97
39223;BME280;24936;46.328;11.026;2023-04-28T05:54:06;94607.44;;;8.01;75.88
39223;BME280;24936;46.328;11.026;2023-04-28T05:56:32;94616.69;;;8.16;75.66
39223;BME280;24936;46.328;11.026;2023-04-28T05:58:57;94616.81;;;8.15;72.79
39223;BME280;24936;46.328;11.026;2023-04-28T06:01:24;94615.25;;;8.23;73.63
39223;BME280;24936;46.328;11.026;2023-04-28T06:03:50;94617.63;;;8.38;72.97
39223;BME280;24936;46.328;11.026;2023-04-28T06:06:17;94623.19;;;8.45;72.75
39223;BME280;24936;46.328;11.026;2023-04-28T06:08:43;94617.25;;;8.54;73.25
39223;BME280;24936;46.328;11.026;2023-04-28T06:11:10;94624.53;;;8.50;75.17
39223;BME280;24936;46.328;11.026;2023-04-28T06:13:36;94630.97;;;8.35;76.10
39223;BME280;24936;46.328;11.026;2023-04-28T06:16:02;94633.47;;;8.25;77.11
39223;BME280;24936;46.328;11.026;2023-04-28T06:18:28;94630.50;;;8.41;76.75
39223;BME280;24936;46.328;11.026;2023-04-28T06:20:56;94618.56;;;8.48;76.74
39223;BME280;24936;46.328;11.026;2023-04-28T06:23:22;94623.69;;;8.50;75.38
39223;BME280;24936;46.328;11.026;2023-04-28T06:25:47;94628.56;;;8.54;74.81
39223;BME280;24936;46.328;11.026;2023-04-28T06:28:13;94625.78;;;8.67;74.61
39223;BME280;24936;46.328;11.026;2023-04-28T06:30:39;94626.81;;;8.76;75.53
39223;BME280;24936;46.328;11.026;2023-04-28T06:33:05;94622.97;;;8.92;75.31
39223;BME280;24936;46.328;11.026;2023-04-28T06:35:30;94625.53;;;9.03;75.24
39223;BME280;24936;46.328;11.026;2023-04-28T06:37:57;94621.22;;;9.02;74.29
39223;BME280;24936;46.328;11.026;2023-04-28T06:40:22;94615.81;;;9.15;74.38
39223;BME280;24936;46.328;11.026;2023-04-28T06:42:48;94622.53;;;9.29;73.76
39223;BME280;24936;46.328;11.026;2023-04-28T06:45:13;94634.38;;;9.44;73.92
39223;BME280;24936;46.328;11.026;2023-04-28T06:47:39;94634.78;;;9.40;72.19
39223;BME280;24936;46.328;11.026;2023-04-28T06:50:05;94637.22;;;9.53;71.83
39223;BME280;24936;46.328;11.026;2023-04-28T06:52:31;94631.94;;;9.74;70.60
39223;BME280;24936;46.328;11.026;2023-04-28T06:54:56;94631.16;;;9.83;70.05
39223;BME280;24936;46.328;11.026;2023-04-28T06:57:22;94620.94;;;9.90;71.13
39223;BME280;24936;46.328;11.026;2023-04-28T06:59:47;94627.41;;;10.17;71.80
39223;BME280;24936;46.328;11.026;2023-04-28T07:02:13;94615.53;;;10.32;70.03
39223;BME280;24936;46.328;11.026;2023-04-28T07:04:44;94620.06;;;10.61;70.59
39223;BME280;24936;46.328;11.026;2023-04-28T07:07:10;94619.00;;;10.93;69.13
39223;BME280;24936;46.328;11.026;2023-04-28T07:09:35;94624.38;;;10.92;68.17
39223;BME280;24936;46.328;11.026;2023-04-28T07:12:02;94633.69;;;10.96;66.88
39223;BME280;24936;46.328;11.026;2023-04-28T07:14:28;94622.31;;;11.05;66.91
39223;BME280;24936;46.328;11.026;2023-04-28T07:16:54;94623.28;;;10.94;66.44
39223;BME280;24936;46.328;11.026;2023-04-28T07:19:19;94613.72;;;10.93;66.29
39223;BME280;24936;46.328;11.026;2023-04-28T07:21:45;94611.22;;;11.11;66.52
39223;BME280;24936;46.328;11.026;2023-04-28T07:24:11;94613.56;;;11.24;65.47
39223;BME280;24936;46.328;11.026;2023-04-28T07:26:36;94616.19;;;11.34;65.04
39223;BME280;24936;46.328;11.026;2023-04-28T07:29:02;94620.16;;;11.58;65.17
39223;BME280;24936;46.328;11.026;2023-04-28T07:31:27;94632.09;;;11.52;64.94
39223;BME280;24936;46.328;11.026;2023-04-28T07:33:53;94621.56;;;11.52;64.90
39223;BME280;24936;46.328;11.026;2023-04-28T07:36:19;94622.31;;;11.25;64.25
39223;BME280;24936;46.328;11.026;2023-04-28T07:38:45;94615.56;;;11.70;62.31
39223;BME280;24936;46.328;11.026;2023-04-28T07:41:11;94622.53;;;11.61;64.08
39223;BME280;24936;46.328;11.026;2023-04-28T07:43:36;94614.56;;;11.81;64.18
39223;BME280;24936;46.328;11.026;2023-04-28T07:46:02;94613.25;;;11.94;64.07
39223;BME280;24936;46.328;11.026;2023-04-28T07:48:27;94616.13;;;11.63;63.74
39223;BME280;24936;46.328;11.026;2023-04-28T07:50:53;94623.63;;;11.68;65.90
39223;BME280;24936;46.328;11.026;2023-04-28T07:53:18;94616.94;;;11.74;62.85
39223;BME280;24936;46.328;11.026;2023-04-28T07:55:44;94611.25;;;11.69;63.90
39223;BME280;24936;46.328;11.026;2023-04-28T07:58:11;94613.78;;;11.60;64.31
39223;BME280;24936;46.328;11.026;2023-04-28T08:00:40;94605.44;;;11.65;65.48
39223;BME280;24936;46.328;11.026;2023-04-28T08:03:11;94602.84;;;11.55;65.60
39223;BME280;24936;46.328;11.026;2023-04-28T08:05:40;94602.94;;;11.63;65.25
39223;BME280;24936;46.328;11.026;2023-04-28T08:08:07;94592.00;;;11.68;66.72
39223;BME280;24936;46.328;11.026;2023-04-28T08:10:32;94599.75;;;11.70;67.34
39223;BME280;24936;46.328;11.026;2023-04-28T08:12:58;94597.72;;;12.01;65.81
39223;BME280;24936;46.328;11.026;2023-04-28T08:15:23;94596.91;;;11.91;66.49
39223;BME280;24936;46.328;11.026;2023-04-28T08:17:50;94593.38;;;12.10;66.52
39223;BME280;24936;46.328;11.026;2023-04-28T08:20:16;94593.09;;;12.13;66.44
39223;BME280;24936;46.328;11.026;2023-04-28T08:22:44;94590.03;;;12.36;65.44
39223;BME280;24936;46.328;11.026;2023-04-28T08:25:09;94584.97;;;12.70;65.60
39223;BME280;24936;46.328;11.026;2023-04-28T08:27:35;94583.00;;;13.27;63.85
39223;BME280;24936;46.328;11.026;2023-04-28T08:30:07;94582.19;;;13.08;62.98
39223;BME280;24936;46.328;11.026;2023-04-28T08:32:33;94580.72;;;13.14;64.06
39223;BME280;24936;46.328;11.026;2023-04-28T08:34:59;94577.38;;;12.67;62.04
39223;BME280;24936;46.328;11.026;2023-04-28T08:37:28;94575.47;;;12.96;62.24
39223;BME280;24936;46.328;11.026;2023-04-28T08:39:53;94579.06;;;13.13;61.93
39223;BME280;24936;46.328;11.026;2023-04-28T08:42:32;94573.22;;;13.01;60.17
39223;BME280;24936;46.328;11.026;2023-04-28T08:44:58;94564.72;;;13.34;60.62
39223;BME280;24936;46.328;11.026;2023-04-28T08:47:29;94571.09;;;13.05;60.19
39223;BME280;24936;46.328;11.026;2023-04-28T08:50:02;94570.25;;;13.04;60.10
39223;BME280;24936;46.328;11.026;2023-04-28T08:52:28;94570.03;;;12.79;59.16
39223;BME280;24936;46.328;11.026;2023-04-28T08:54:55;94578.00;;;12.51;60.79
39223;BME280;24936;46.328;11.026;2023-04-28T08:57:20;94574.28;;;12.72;59.94
39223;BME280;24936;46.328;11.026;2023-04-28T08:59:46;94570.75;;;13.26;58.77
39223;BME280;24936;46.328;11.026;2023-04-28T09:02:12;94571.41;;;13.72;57.34
39223;BME280;24936;46.328;11.026;2023-04-28T09:04:37;94580.03;;;13.48;58.58
39223;BME280;24936;46.328;11.026;2023-04-28T09:07:03;94586.00;;;13.76;55.16
39223;BME280;24936;46.328;11.026;2023-04-28T09:09:30;94587.28;;;13.99;57.04
39223;BME280;24936;46.328;11.026;2023-04-28T09:11:59;94581.28;;;13.88;56.03
39223;BME280;24936;46.328;11.026;2023-04-28T09:14:26;94569.09;;;13.69;57.74
39223;BME280;24936;46.328;11.026;2023-04-28T09:16:52;94567.25;;;13.96;57.42
39223;BME280;24936;46.328;11.026;2023-04-28T09:19:18;94568.47;;;14.53;55.79
39223;BME280;24936;46.328;11.026;2023-04-28T09:21:51;94570.81;;;14.64;56.47
39223;BME280;24936;46.328;11.026;2023-04-28T09:24:33;94567.44;;;14.46;56.54
39223;BME280;24936;46.328;11.026;2023-04-28T09:27:00;94565.03;;;14.18;56.41
39223;BME280;24936;46.328;11.026;2023-04-28T09:29:32;94560.03;;;14.15;56.88
39223;BME280;24936;46.328;11.026;2023-04-28T09:32:17;94564.41;;;14.32;56.03
39223;BME280;24936;46.328;11.026;2023-04-28T09:34:50;94557.97;;;14.35;56.21
39223;BME280;24936;46.328;11.026;2023-04-28T09:37:16;94553.25;;;14.12;55.62
39223;BME280;24936;46.328;11.026;2023-04-28T09:39:45;94557.81;;;14.36;54.67
39223;BME280;24936;46.328;11.026;2023-04-28T09:42:30;94558.31;;;14.40;55.76
39223;BME280;24936;46.328;11.026;2023-04-28T09:44:57;94550.88;;;14.35;57.70
39223;BME280;24936;46.328;11.026;2023-04-28T09:47:22;94555.22;;;14.61;56.19
39223;BME280;24936;46.328;11.026;2023-04-28T09:50:03;94549.66;;;14.81;53.71
39223;BME280;24936;46.328;11.026;2023-04-28T09:52:29;94554.31;;;14.79;51.90
39223;BME280;24936;46.328;11.026;2023-04-28T09:54:55;94551.84;;;15.10;51.71
39223;BME280;24936;46.328;11.026;2023-04-28T09:57:22;94550.84;;;15.44;53.82
39223;BME280;24936;46.328;11.026;2023-04-28T09:59:51;94549.00;;;15.04;53.94
39223;BME280;24936;46.328;11.026;2023-04-28T10:02:18;94542.00;;;15.60;53.77
39223;BME280;24936;46.328;11.026;2023-04-28T10:04:45;94532.22;;;17.12;47.74
39223;BME280;24936;46.328;11.026;2023-04-28T10:07:11;94535.34;;;16.61;48.61
39223;BME280;24936;46.328;11.026;2023-04-28T10:09:39;94527.97;;;17.41;44.98
39223;BME280;24936;46.328;11.026;2023-04-28T10:12:09;94520.41;;;17.30;47.71
39223;BME280;24936;46.328;11.026;2023-04-28T10:14:36;94509.25;;;18.39;46.67
39223;BME280;24936;46.328;11.026;2023-04-28T10:17:02;94492.66;;;18.22;44.43
39223;BME280;24936;46.328;11.026;2023-04-28T10:19:28;94504.78;;;17.80;44.88
39223;BME280;24936;46.328;11.026;2023-04-28T10:27:28;94490.75;;;19.39;40.56
39223;BME280;24936;46.328;11.026;2023-04-28T10:30:12;94493.03;;;19.14;43.72
39223;BME280;24936;46.328;11.026;2023-04-28T10:32:38;94490.59;;;18.02;40.13
39223;BME280;24936;46.328;11.026;2023-04-28T10:38:08;94479.25;;;17.40;43.72
39223;BME280;24936;46.328;11.026;2023-04-28T10:40:35;94471.75;;;17.74;43.44
39223;BME280;24936;46.328;11.026;2023-04-28T10:43:02;94471.84;;;17.96;45.65
39223;BME280;24936;46.328;11.026;2023-04-28T10:48:19;94473.41;;;17.60;43.07
39223;BME280;24936;46.328;11.026;2023-04-28T10:58:36;94446.22;;;18.10;41.24
39223;BME280;24936;46.328;11.026;2023-04-28T11:06:21;94432.91;;;19.40;40.70
39223;BME280;24936;46.328;11.026;2023-04-28T11:08:49;94438.56;;;19.94;40.89
39223;BME280;24936;46.328;11.026;2023-04-28T11:11:20;94431.97;;;19.96;39.52
39223;BME280;24936;46.328;11.026;2023-04-28T11:13:46;94436.00;;;18.93;41.56
39223;BME280;24936;46.328;11.026;2023-04-28T11:16:17;94450.91;;;18.08;42.44
39223;BME280;24936;46.328;11.026;2023-04-28T11:21:15;94444.19;;;18.48;40.42
39223;BME280;24936;46.328;11.026;2023-04-28T11:23:41;94436.31;;;17.88;42.21
39223;BME280;24936;46.328;11.026;2023-04-28T11:26:07;94431.78;;;18.19;41.24
39223;BME280;24936;46.328;11.026;2023-04-28T11:28:33;94433.53;;;18.70;43.43
39223;BME280;24936;46.328;11.026;2023-04-28T11:31:13;94432.03;;;17.72;44.87
39223;BME280;24936;46.328;11.026;2023-04-28T11:33:45;94439.28;;;17.64;43.22
39223;BME280;24936;46.328;11.026;2023-04-28T11:36:22;94431.59;;;17.01;45.59
39223;BME280;24936;46.328;11.026;2023-04-28T11:38:47;94426.56;;;16.82;46.94
39223;BME280;24936;46.328;11.026;2023-04-28T11:41:13;94417.34;;;16.32;49.75
39223;BME280;24936;46.328;11.026;2023-04-28T11:43:39;94420.94;;;16.39;49.05
39223;BME280;24936;46.328;11.026;2023-04-28T11:46:06;94418.78;;;17.34;46.12
39223;BME280;24936;46.328;11.026;2023-04-28T11:48:31;94415.41;;;18.00;44.83
39223;BME280;24936;46.328;11.026;2023-04-28T11:50:57;94416.34;;;17.63;42.50
39223;BME280;24936;46.328;11.026;2023-04-28T11:53:42;94405.03;;;17.31;47.75
39223;BME280;24936;46.328;11.026;2023-04-28T11:56:08;94416.59;;;17.53;45.63
39223;BME280;24936;46.328;11.026;2023-04-28T11:58:34;94413.72;;;17.84;43.84
39223;BME280;24936;46.328;11.026;2023-04-28T12:01:10;94407.91;;;17.59;43.34
39223;BME280;24936;46.328;11.026;2023-04-28T12:03:46;94398.88;;;17.75;46.37
39223;BME280;24936;46.328;11.026;2023-04-28T12:06:18;94402.91;;;18.59;41.72
39223;BME280;24936;46.328;11.026;2023-04-28T12:08:44;94405.16;;;18.62;40.72
39223;BME280;24936;46.328;11.026;2023-04-28T12:11:10;94404.19;;;18.05;41.56
39223;BME280;24936;46.328;11.026;2023-04-28T12:13:40;94404.66;;;17.79;43.01
39223;BME280;24936;46.328;11.026;2023-04-28T12:16:06;94410.84;;;17.49;44.65
39223;BME280;24936;46.328;11.026;2023-04-28T12:18:35;94400.25;;;17.86;43.89
39223;BME280;24936;46.328;11.026;2023-04-28T12:21:02;94397.69;;;17.78;43.42
39223;BME280;24936;46.328;11.026;2023-04-28T12:23:31;94391.97;;;16.91;44.08
39223;BME280;24936;46.328;11.026;2023-04-28T12:25:58;94388.09;;;18.57;44.26
39223;BME280;24936;46.328;11.026;2023-04-28T12:28:23;94389.19;;;18.62;46.16
39223;BME280;24936;46.328;11.026;2023-04-28T12:31:07;94377.47;;;19.07;43.30
39223;BME280;24936;46.328;11.026;2023-04-28T12:33:34;94373.69;;;18.94;39.08
39223;BME280;24936;46.328;11.026;2023-04-28T12:36:04;94385.75;;;18.47;41.80
39223;BME280;24936;46.328;11.026;2023-04-28T12:38:32;94380.69;;;17.94;44.27
39223;BME280;24936;46.328;11.026;2023-04-28T12:40:57;94374.66;;;17.70;43.91
39223;BME280;24936;46.328;11.026;2023-04-28T12:43:23;94381.56;;;17.64;47.71
39223;BME280;24936;46.328;11.026;2023-04-28T12:45:50;94383.13;;;17.28;44.47
39223;BME280;24936;46.328;11.026;2023-04-28T12:48:17;94378.00;;;17.42;44.33
39223;BME280;24936;46.328;11.026;2023-04-28T12:50:42;94371.44;;;18.26;43.77
39223;BME280;24936;46.328;11.026;2023-04-28T12:53:08;94376.38;;;18.73;43.72
39223;BME280;24936;46.328;11.026;2023-04-28T12:55:33;94376.69;;;18.19;40.99
39223;BME280;24936;46.328;11.026;2023-04-28T12:57:59;94369.72;;;17.67;41.54
39223;BME280;24936;46.328;11.026;2023-04-28T13:00:24;94364.66;;;17.72;45.02
39223;BME280;24936;46.328;11.026;2023-04-28T13:02:50;94370.19;;;17.70;41.73
39223;BME280;24936;46.328;11.026;2023-04-28T13:05:16;94364.56;;;17.80;47.05
39223;BME280;24936;46.328;11.026;2023-04-28T13:07:43;94357.72;;;18.08;43.81
39223;BME280;24936;46.328;11.026;2023-04-28T13:10:09;94346.69;;;18.11;44.07
39223;BME280;24936;46.328;11.026;2023-04-28T13:12:35;94342.88;;;18.63;44.24
39223;BME280;24936;46.328;11.026;2023-04-28T13:15:01;94333.59;;;17.94;42.40
39223;BME280;24936;46.328;11.026;2023-04-28T13:17:27;94333.44;;;17.29;45.13
39223;BME280;24936;46.328;11.026;2023-04-28T13:19:52;94337.47;;;17.77;44.52